sensor_id;sensor_type;location;lat;lon;timestamp;temperature;humidity
78461;SHT31;67755;51.986;5.696;2023-04-06T00:01:20;9.4;44.6
78461;SHT31;67755;51.986;5.696;2023-04-06T00:03:50;9.3;44.3
78461;SHT31;67755;51.986;5.696;2023-04-06T00:06:20;9.3;44.4
78461;SHT31;67755;51.986;5.696;2023-04-06T00:08:49;9.3;44.7
78461;SHT31;67755;51.986;5.696;2023-04-06T00:11:19;9.3;44.7
78461;SHT31;67755;51.986;5.696;2023-04-06T00:13:48;9.3;44.7
78461;SHT31;67755;51.986;5.696;2023-04-06T00:16:19;9.3;44.8
78461;SHT31;67755;51.986;5.696;2023-04-06T00:18:49;9.2;44.4
78461;SHT31;67755;51.986;5.696;2023-04-06T00:21:18;9.2;45.1
78461;SHT31;67755;51.986;5.696;2023-04-06T00:23:48;9.2;44.9
78461;SHT31;67755;51.986;5.696;2023-04-06T00:26:18;9.2;45.0
78461;SHT31;67755;51.986;5.696;2023-04-06T00:28:47;9.2;45.2
78461;SHT31;67755;51.986;5.696;2023-04-06T00:31:19;9.2;45.4
78461;SHT31;67755;51.986;5.696;2023-04-06T00:33:49;9.2;45.0
78461;SHT31;67755;51.986;5.696;2023-04-06T00:36:19;9.2;44.5
78461;SHT31;67755;51.986;5.696;2023-04-06T00:38:49;9.1;44.9
78461;SHT31;67755;51.986;5.696;2023-04-06T00:41:21;9.1;45.3
78461;SHT31;67755;51.986;5.696;2023-04-06T00:43:51;9.1;45.3
78461;SHT31;67755;51.986;5.696;2023-04-06T00:46:20;9.1;45.1
78461;SHT31;67755;51.986;5.696;2023-04-06T00:48:50;9.1;45.2
78461;SHT31;67755;51.986;5.696;2023-04-06T00:51:20;9.1;45.2
78461;SHT31;67755;51.986;5.696;2023-04-06T00:53:50;9.1;45.1
78461;SHT31;67755;51.986;5.696;2023-04-06T00:56:19;9.1;44.9
78461;SHT31;67755;51.986;5.696;2023-04-06T00:58:51;9.1;45.1
78461;SHT31;67755;51.986;5.696;2023-04-06T01:01:20;9.1;45.2
78461;SHT31;67755;51.986;5.696;2023-04-06T01:03:50;9.0;45.5
78461;SHT31;67755;51.986;5.696;2023-04-06T01:06:21;9.0;45.3
78461;SHT31;67755;51.986;5.696;2023-04-06T01:08:51;9.0;45.5
78461;SHT31;67755;51.986;5.696;2023-04-06T01:11:20;9.0;45.3
78461;SHT31;67755;51.986;5.696;2023-04-06T01:13:52;9.0;45.2
78461;SHT31;67755;51.986;5.696;2023-04-06T01:16:22;9.0;45.2
78461;SHT31;67755;51.986;5.696;2023-04-06T01:18:51;9.0;45.2
78461;SHT31;67755;51.986;5.696;2023-04-06T01:21:21;9.0;45.6
78461;SHT31;67755;51.986;5.696;2023-04-06T01:23:51;8.9;45.3
78461;SHT31;67755;51.986;5.696;2023-04-06T01:26:20;8.9;45.0
78461;SHT31;67755;51.986;5.696;2023-04-06T01:28:50;8.9;45.5
78461;SHT31;67755;51.986;5.696;2023-04-06T01:31:22;8.9;45.5
78461;SHT31;67755;51.986;5.696;2023-04-06T01:33:52;8.9;45.1
78461;SHT31;67755;51.986;5.696;2023-04-06T01:36:22;8.9;45.7
78461;SHT31;67755;51.986;5.696;2023-04-06T01:38:52;8.9;45.6
78461;SHT31;67755;51.986;5.696;2023-04-06T01:41:23;8.8;45.8
78461;SHT31;67755;51.986;5.696;2023-04-06T01:43:56;8.8;44.9
78461;SHT31;67755;51.986;5.696;2023-04-06T01:46:25;8.8;45.8
78461;SHT31;67755;51.986;5.696;2023-04-06T01:48:55;8.8;45.7
78461;SHT31;67755;51.986;5.696;2023-04-06T01:51:25;8.8;45.5
78461;SHT31;67755;51.986;5.696;2023-04-06T01:53:54;8.8;45.9
78461;SHT31;67755;51.986;5.696;2023-04-06T01:56:24;8.8;46.2
78461;SHT31;67755;51.986;5.696;2023-04-06T01:58:54;8.7;45.8
78461;SHT31;67755;51.986;5.696;2023-04-06T02:01:24;8.7;45.9
78461;SHT31;67755;51.986;5.696;2023-04-06T02:03:53;8.7;46.1
78461;SHT31;67755;51.986;5.696;2023-04-06T02:06:23;8.7;46.1
78461;SHT31;67755;51.986;5.696;2023-04-06T02:08:54;8.7;46.0
78461;SHT31;67755;51.986;5.696;2023-04-06T02:11:23;8.7;45.8
78461;SHT31;67755;51.986;5.696;2023-04-06T02:13:53;8.7;46.2
78461;SHT31;67755;51.986;5.696;2023-04-06T02:16:22;8.7;46.9
78461;SHT31;67755;51.986;5.696;2023-04-06T02:18:52;8.7;46.8
78461;SHT31;67755;51.986;5.696;2023-04-06T02:21:22;8.6;47.2
78461;SHT31;67755;51.986;5.696;2023-04-06T02:23:54;8.6;46.8
78461;SHT31;67755;51.986;5.696;2023-04-06T02:26:23;8.6;47.3
78461;SHT31;67755;51.986;5.696;2023-04-06T02:28:53;8.6;47.4
78461;SHT31;67755;51.986;5.696;2023-04-06T02:31:22;8.6;47.6
78461;SHT31;67755;51.986;5.696;2023-04-06T02:33:54;8.6;47.3
78461;SHT31;67755;51.986;5.696;2023-04-06T02:36:24;8.6;47.7
78461;SHT31;67755;51.986;5.696;2023-04-06T02:38:53;8.6;47.6
78461;SHT31;67755;51.986;5.696;2023-04-06T02:41:23;8.6;47.6
78461;SHT31;67755;51.986;5.696;2023-04-06T02:43:54;8.6;47.7
78461;SHT31;67755;51.986;5.696;2023-04-06T02:46:23;8.6;47.7
78461;SHT31;67755;51.986;5.696;2023-04-06T02:48:53;8.7;47.6
78461;SHT31;67755;51.986;5.696;2023-04-06T02:51:23;8.7;47.3
78461;SHT31;67755;51.986;5.696;2023-04-06T02:53:53;8.7;48.1
78461;SHT31;67755;51.986;5.696;2023-04-06T02:56:22;8.7;47.9
78461;SHT31;67755;51.986;5.696;2023-04-06T02:58:52;8.7;47.9
78461;SHT31;67755;51.986;5.696;2023-04-06T03:01:22;8.8;47.8
78461;SHT31;67755;51.986;5.696;2023-04-06T03:03:51;8.8;47.4
78461;SHT31;67755;51.986;5.696;2023-04-06T03:06:21;8.8;47.9
78461;SHT31;67755;51.986;5.696;2023-04-06T03:08:50;8.8;48.0
78461;SHT31;67755;51.986;5.696;2023-04-06T03:11:20;8.8;47.1
78461;SHT31;67755;51.986;5.696;2023-04-06T03:13:50;8.8;47.2
78461;SHT31;67755;51.986;5.696;2023-04-06T03:16:19;8.9;47.3
78461;SHT31;67755;51.986;5.696;2023-04-06T03:18:50;8.9;47.9
78461;SHT31;67755;51.986;5.696;2023-04-06T03:21:19;8.9;47.6
78461;SHT31;67755;51.986;5.696;2023-04-06T03:23:51;8.9;47.4
78461;SHT31;67755;51.986;5.696;2023-04-06T03:26:21;8.9;47.1
78461;SHT31;67755;51.986;5.696;2023-04-06T03:28:51;8.9;47.1
78461;SHT31;67755;51.986;5.696;2023-04-06T03:31:20;8.9;47.2
78461;SHT31;67755;51.986;5.696;2023-04-06T03:33:50;8.9;47.3
78461;SHT31;67755;51.986;5.696;2023-04-06T03:36:19;9.0;46.7
78461;SHT31;67755;51.986;5.696;2023-04-06T03:38:49;9.0;46.9
78461;SHT31;67755;51.986;5.696;2023-04-06T03:41:21;9.0;47.4
78461;SHT31;67755;51.986;5.696;2023-04-06T03:43:50;9.0;47.7
78461;SHT31;67755;51.986;5.696;2023-04-06T03:46:22;9.0;47.6
78461;SHT31;67755;51.986;5.696;2023-04-06T03:48:52;9.0;47.3
78461;SHT31;67755;51.986;5.696;2023-04-06T03:51:21;9.0;47.4
78461;SHT31;67755;51.986;5.696;2023-04-06T03:53:53;9.1;47.8
78461;SHT31;67755;51.986;5.696;2023-04-06T03:56:23;9.1;48.0
78461;SHT31;67755;51.986;5.696;2023-04-06T03:58:52;9.1;47.7
78461;SHT31;67755;51.986;5.696;2023-04-06T04:01:22;9.1;47.4
78461;SHT31;67755;51.986;5.696;2023-04-06T04:03:53;9.1;47.9
78461;SHT31;67755;51.986;5.696;2023-04-06T04:06:23;9.1;47.9
78461;SHT31;67755;51.986;5.696;2023-04-06T04:08:54;9.1;47.3
78461;SHT31;67755;51.986;5.696;2023-04-06T04:11:24;9.1;47.8
78461;SHT31;67755;51.986;5.696;2023-04-06T04:13:54;9.1;47.5
78461;SHT31;67755;51.986;5.696;2023-04-06T04:16:23;9.2;47.5
78461;SHT31;67755;51.986;5.696;2023-04-06T04:18:55;9.2;48.0
78461;SHT31;67755;51.986;5.696;2023-04-06T04:21:25;9.2;47.7
78461;SHT31;67755;51.986;5.696;2023-04-06T04:23:55;9.2;47.8
78461;SHT31;67755;51.986;5.696;2023-04-06T04:26:24;9.2;48.0
78461;SHT31;67755;51.986;5.696;2023-04-06T04:28:54;9.2;47.4
78461;SHT31;67755;51.986;5.696;2023-04-06T04:31:25;9.2;47.7
78461;SHT31;67755;51.986;5.696;2023-04-06T04:33:57;9.2;47.9
78461;SHT31;67755;51.986;5.696;2023-04-06T04:36:27;9.2;48.1
78461;SHT31;67755;51.986;5.696;2023-04-06T04:38:57;9.2;47.4
78461;SHT31;67755;51.986;5.696;2023-04-06T04:41:28;9.2;48.1
78461;SHT31;67755;51.986;5.696;2023-04-06T04:43:58;9.2;48.0
78461;SHT31;67755;51.986;5.696;2023-04-06T04:46:27;9.2;48.0
78461;SHT31;67755;51.986;5.696;2023-04-06T04:48:57;9.2;47.9
78461;SHT31;67755;51.986;5.696;2023-04-06T04:51:28;9.2;47.7
78461;SHT31;67755;51.986;5.696;2023-04-06T04:53:58;9.2;47.5
78461;SHT31;67755;51.986;5.696;2023-04-06T04:56:28;9.2;47.5
78461;SHT31;67755;51.986;5.696;2023-04-06T04:58:57;9.2;47.4
78461;SHT31;67755;51.986;5.696;2023-04-06T05:01:27;9.2;48.0
78461;SHT31;67755;51.986;5.696;2023-04-06T05:03:57;9.2;47.6
78461;SHT31;67755;51.986;5.696;2023-04-06T05:06:27;9.2;47.2
78461;SHT31;67755;51.986;5.696;2023-04-06T05:08:57;9.2;47.2
78461;SHT31;67755;51.986;5.696;2023-04-06T05:11:27;9.2;47.2
78461;SHT31;67755;51.986;5.696;2023-04-06T05:13:56;9.2;46.5
78461;SHT31;67755;51.986;5.696;2023-04-06T05:16:28;9.2;46.8
78461;SHT31;67755;51.986;5.696;2023-04-06T05:18:58;9.2;46.9
78461;SHT31;67755;51.986;5.696;2023-04-06T05:21:28;9.2;46.9
78461;SHT31;67755;51.986;5.696;2023-04-06T05:23:57;9.2;47.0
78461;SHT31;67755;51.986;5.696;2023-04-06T05:26:29;9.2;47.2
78461;SHT31;67755;51.986;5.696;2023-04-06T05:28:59;9.2;47.2
78461;SHT31;67755;51.986;5.696;2023-04-06T05:31:28;9.2;47.2
78461;SHT31;67755;51.986;5.696;2023-04-06T05:33:58;9.2;47.6
78461;SHT31;67755;51.986;5.696;2023-04-06T05:36:28;9.2;47.5
78461;SHT31;67755;51.986;5.696;2023-04-06T05:39:00;9.2;47.2
78461;SHT31;67755;51.986;5.696;2023-04-06T05:41:30;9.2;47.7
78461;SHT31;67755;51.986;5.696;2023-04-06T05:44:00;9.2;47.9
78461;SHT31;67755;51.986;5.696;2023-04-06T05:46:30;9.3;48.1
78461;SHT31;67755;51.986;5.696;2023-04-06T05:49:02;9.3;48.2
78461;SHT31;67755;51.986;5.696;2023-04-06T05:51:32;9.3;48.4
78461;SHT31;67755;51.986;5.696;2023-04-06T05:54:02;9.3;48.8
78461;SHT31;67755;51.986;5.696;2023-04-06T05:56:31;9.3;48.7
78461;SHT31;67755;51.986;5.696;2023-04-06T05:59:01;9.3;48.7
78461;SHT31;67755;51.986;5.696;2023-04-06T06:01:31;9.4;48.5
78461;SHT31;67755;51.986;5.696;2023-04-06T06:04:02;9.4;49.2
78461;SHT31;67755;51.986;5.696;2023-04-06T06:06:34;9.4;49.4
78461;SHT31;67755;51.986;5.696;2023-04-06T06:09:04;9.4;48.4
78461;SHT31;67755;51.986;5.696;2023-04-06T06:11:34;9.4;48.7
78461;SHT31;67755;51.986;5.696;2023-04-06T06:14:05;9.5;47.9
78461;SHT31;67755;51.986;5.696;2023-04-06T06:16:34;9.5;48.0
78461;SHT31;67755;51.986;5.696;2023-04-06T06:19:04;9.5;47.4
78461;SHT31;67755;51.986;5.696;2023-04-06T06:21:33;9.6;47.4
78461;SHT31;67755;51.986;5.696;2023-04-06T06:24:03;9.6;46.9
78461;SHT31;67755;51.986;5.696;2023-04-06T06:26:33;9.6;48.0
78461;SHT31;67755;51.986;5.696;2023-04-06T06:29:04;9.7;47.9
78461;SHT31;67755;51.986;5.696;2023-04-06T06:31:34;9.7;46.9
78461;SHT31;67755;51.986;5.696;2023-04-06T06:34:04;9.7;46.4
78461;SHT31;67755;51.986;5.696;2023-04-06T06:36:33;9.7;47.1
78461;SHT31;67755;51.986;5.696;2023-04-06T06:39:03;9.8;46.1
78461;SHT31;67755;51.986;5.696;2023-04-06T06:41:33;9.8;45.8
78461;SHT31;67755;51.986;5.696;2023-04-06T06:44:03;9.8;46.1
78461;SHT31;67755;51.986;5.696;2023-04-06T06:46:32;9.8;45.7
78461;SHT31;67755;51.986;5.696;2023-04-06T06:49:02;9.8;46.5
78461;SHT31;67755;51.986;5.696;2023-04-06T06:51:33;9.9;46.0
78461;SHT31;67755;51.986;5.696;2023-04-06T06:54:03;9.9;47.0
78461;SHT31;67755;51.986;5.696;2023-04-06T06:56:33;9.9;45.6
78461;SHT31;67755;51.986;5.696;2023-04-06T06:59:05;10.0;46.7
78461;SHT31;67755;51.986;5.696;2023-04-06T07:01:36;10.0;47.2
78461;SHT31;67755;51.986;5.696;2023-04-06T07:04:06;10.0;47.3
78461;SHT31;67755;51.986;5.696;2023-04-06T07:06:36;10.1;47.3
78461;SHT31;67755;51.986;5.696;2023-04-06T07:09:06;10.1;47.2
78461;SHT31;67755;51.986;5.696;2023-04-06T07:11:36;10.1;45.4
78461;SHT31;67755;51.986;5.696;2023-04-06T07:14:06;10.1;46.6
78461;SHT31;67755;51.986;5.696;2023-04-06T07:16:38;10.2;46.6
78461;SHT31;67755;51.986;5.696;2023-04-06T07:19:08;10.2;46.9
78461;SHT31;67755;51.986;5.696;2023-04-06T07:21:38;10.2;46.5
78461;SHT31;67755;51.986;5.696;2023-04-06T07:24:12;10.3;46.7
78461;SHT31;67755;51.986;5.696;2023-04-06T07:26:42;10.3;47.2
78461;SHT31;67755;51.986;5.696;2023-04-06T07:29:12;10.4;46.7
78461;SHT31;67755;51.986;5.696;2023-04-06T07:31:42;10.4;45.6
78461;SHT31;67755;51.986;5.696;2023-04-06T07:34:12;10.5;46.0
78461;SHT31;67755;51.986;5.696;2023-04-06T07:36:42;10.5;45.7
78461;SHT31;67755;51.986;5.696;2023-04-06T07:39:12;10.6;46.4
78461;SHT31;67755;51.986;5.696;2023-04-06T07:41:41;10.6;46.6
78461;SHT31;67755;51.986;5.696;2023-04-06T07:44:11;10.6;47.2
78461;SHT31;67755;51.986;5.696;2023-04-06T07:46:41;10.7;46.9
78461;SHT31;67755;51.986;5.696;2023-04-06T07:49:10;10.7;46.3
78461;SHT31;67755;51.986;5.696;2023-04-06T07:51:40;10.8;46.7
78461;SHT31;67755;51.986;5.696;2023-04-06T07:54:10;10.8;46.7
78461;SHT31;67755;51.986;5.696;2023-04-06T07:56:39;10.9;45.4
78461;SHT31;67755;51.986;5.696;2023-04-06T07:59:09;10.9;46.3
78461;SHT31;67755;51.986;5.696;2023-04-06T08:01:39;10.9;46.8
78461;SHT31;67755;51.986;5.696;2023-04-06T08:04:09;10.9;47.9
78461;SHT31;67755;51.986;5.696;2023-04-06T08:06:39;11.0;44.9
78461;SHT31;67755;51.986;5.696;2023-04-06T08:09:08;11.0;45.4
78461;SHT31;67755;51.986;5.696;2023-04-06T08:11:38;11.0;44.7
78461;SHT31;67755;51.986;5.696;2023-04-06T08:14:08;11.1;46.4
78461;SHT31;67755;51.986;5.696;2023-04-06T08:16:37;11.1;45.5
78461;SHT31;67755;51.986;5.696;2023-04-06T08:19:07;11.1;45.7
78461;SHT31;67755;51.986;5.696;2023-04-06T08:21:38;11.2;46.3
78461;SHT31;67755;51.986;5.696;2023-04-06T08:24:10;11.2;47.8
78461;SHT31;67755;51.986;5.696;2023-04-06T08:26:40;11.3;44.6
78461;SHT31;67755;51.986;5.696;2023-04-06T08:29:10;11.3;44.2
78461;SHT31;67755;51.986;5.696;2023-04-06T08:31:39;11.4;44.1
78461;SHT31;67755;51.986;5.696;2023-04-06T08:34:09;11.4;45.1
78461;SHT31;67755;51.986;5.696;2023-04-06T08:36:40;11.4;44.7
78461;SHT31;67755;51.986;5.696;2023-04-06T08:39:10;11.5;43.9
78461;SHT31;67755;51.986;5.696;2023-04-06T08:41:41;11.5;43.9
78461;SHT31;67755;51.986;5.696;2023-04-06T08:44:11;11.6;44.4
78461;SHT31;67755;51.986;5.696;2023-04-06T08:46:41;11.6;42.7
78461;SHT31;67755;51.986;5.696;2023-04-06T08:49:12;11.6;43.1
78461;SHT31;67755;51.986;5.696;2023-04-06T08:51:43;11.7;43.7
78461;SHT31;67755;51.986;5.696;2023-04-06T08:54:14;11.8;43.6
78461;SHT31;67755;51.986;5.696;2023-04-06T08:56:45;11.8;43.6
78461;SHT31;67755;51.986;5.696;2023-04-06T08:59:16;11.9;44.2
78461;SHT31;67755;51.986;5.696;2023-04-06T09:01:46;11.9;43.2
78461;SHT31;67755;51.986;5.696;2023-04-06T09:04:18;11.9;43.5
78461;SHT31;67755;51.986;5.696;2023-04-06T09:06:48;12.0;43.3
78461;SHT31;67755;51.986;5.696;2023-04-06T09:09:18;12.0;43.0
78461;SHT31;67755;51.986;5.696;2023-04-06T09:11:49;12.0;43.2
78461;SHT31;67755;51.986;5.696;2023-04-06T09:14:35;12.1;43.8
78461;SHT31;67755;51.986;5.696;2023-04-06T09:17:06;12.1;44.7
78461;SHT31;67755;51.986;5.696;2023-04-06T09:19:52;12.2;44.3
78461;SHT31;67755;51.986;5.696;2023-04-06T09:22:22;12.2;44.5
78461;SHT31;67755;51.986;5.696;2023-04-06T09:24:54;12.3;44.5
78461;SHT31;67755;51.986;5.696;2023-04-06T09:27:32;12.3;43.8
78461;SHT31;67755;51.986;5.696;2023-04-06T09:30:07;12.3;44.5
78461;SHT31;67755;51.986;5.696;2023-04-06T09:32:51;12.4;44.0
78461;SHT31;67755;51.986;5.696;2023-04-06T09:35:24;12.4;44.1
78461;SHT31;67755;51.986;5.696;2023-04-06T09:37:57;12.5;43.5
78461;SHT31;67755;51.986;5.696;2023-04-06T09:40:27;12.5;43.7
78461;SHT31;67755;51.986;5.696;2023-04-06T09:42:56;12.5;43.7
78461;SHT31;67755;51.986;5.696;2023-04-06T09:45:29;12.6;44.3
78461;SHT31;67755;51.986;5.696;2023-04-06T09:48:00;12.6;44.8
78461;SHT31;67755;51.986;5.696;2023-04-06T09:50:31;12.7;43.9
78461;SHT31;67755;51.986;5.696;2023-04-06T09:53:03;12.7;44.3
78461;SHT31;67755;51.986;5.696;2023-04-06T09:55:38;12.7;44.0
78461;SHT31;67755;51.986;5.696;2023-04-06T09:58:13;12.8;44.4
78461;SHT31;67755;51.986;5.696;2023-04-06T10:00:50;12.8;44.2
78461;SHT31;67755;51.986;5.696;2023-04-06T10:03:30;12.9;43.2
78461;SHT31;67755;51.986;5.696;2023-04-06T10:06:10;12.9;43.5
78461;SHT31;67755;51.986;5.696;2023-04-06T10:08:41;12.9;43.5
78461;SHT31;67755;51.986;5.696;2023-04-06T10:11:12;12.9;43.7
78461;SHT31;67755;51.986;5.696;2023-04-06T10:13:42;13.0;43.4
78461;SHT31;67755;51.986;5.696;2023-04-06T10:16:13;13.0;42.9
78461;SHT31;67755;51.986;5.696;2023-04-06T10:18:47;13.0;43.2
78461;SHT31;67755;51.986;5.696;2023-04-06T10:21:23;13.0;44.4
78461;SHT31;67755;51.986;5.696;2023-04-06T10:23:58;13.0;43.5
78461;SHT31;67755;51.986;5.696;2023-04-06T10:26:28;13.1;43.4
78461;SHT31;67755;51.986;5.696;2023-04-06T10:29:03;13.1;43.8
78461;SHT31;67755;51.986;5.696;2023-04-06T10:31:42;13.1;44.1
78461;SHT31;67755;51.986;5.696;2023-04-06T10:34:13;13.1;44.8
78461;SHT31;67755;51.986;5.696;2023-04-06T10:36:43;13.2;45.2
78461;SHT31;67755;51.986;5.696;2023-04-06T10:39:12;13.2;44.7
78461;SHT31;67755;51.986;5.696;2023-04-06T10:41:45;13.3;44.1
78461;SHT31;67755;51.986;5.696;2023-04-06T10:44:23;13.3;44.0
78461;SHT31;67755;51.986;5.696;2023-04-06T10:46:58;13.4;44.8
78461;SHT31;67755;51.986;5.696;2023-04-06T10:49:30;13.4;44.7
78461;SHT31;67755;51.986;5.696;2023-04-06T10:52:05;13.4;44.9
78461;SHT31;67755;51.986;5.696;2023-04-06T10:54:42;13.5;45.2
78461;SHT31;67755;51.986;5.696;2023-04-06T10:57:14;13.5;45.5
78461;SHT31;67755;51.986;5.696;2023-04-06T10:59:44;13.5;45.6
78461;SHT31;67755;51.986;5.696;2023-04-06T11:02:21;13.6;46.5
78461;SHT31;67755;51.986;5.696;2023-04-06T11:04:58;13.6;48.4
78461;SHT31;67755;51.986;5.696;2023-04-06T11:07:28;13.6;49.1
78461;SHT31;67755;51.986;5.696;2023-04-06T11:09:58;13.6;49.9
78461;SHT31;67755;51.986;5.696;2023-04-06T11:12:30;13.6;51.4
78461;SHT31;67755;51.986;5.696;2023-04-06T11:15:01;13.6;51.2
78461;SHT31;67755;51.986;5.696;2023-04-06T11:17:33;13.6;51.8
78461;SHT31;67755;51.986;5.696;2023-04-06T11:20:04;13.6;53.4
78461;SHT31;67755;51.986;5.696;2023-04-06T11:22:34;13.6;53.6
78461;SHT31;67755;51.986;5.696;2023-04-06T11:25:07;13.6;54.0
78461;SHT31;67755;51.986;5.696;2023-04-06T11:27:40;13.6;52.5
78461;SHT31;67755;51.986;5.696;2023-04-06T11:30:10;13.6;53.9
78461;SHT31;67755;51.986;5.696;2023-04-06T11:32:45;13.6;53.7
78461;SHT31;67755;51.986;5.696;2023-04-06T11:35:22;13.5;55.4
78461;SHT31;67755;51.986;5.696;2023-04-06T11:37:52;13.5;53.5
78461;SHT31;67755;51.986;5.696;2023-04-06T11:40:27;13.5;54.2
78461;SHT31;67755;51.986;5.696;2023-04-06T11:42:57;13.5;54.4
78461;SHT31;67755;51.986;5.696;2023-04-06T11:45:27;13.5;53.9
78461;SHT31;67755;51.986;5.696;2023-04-06T11:47:58;13.4;53.5
78461;SHT31;67755;51.986;5.696;2023-04-06T11:50:33;13.4;54.1
78461;SHT31;67755;51.986;5.696;2023-04-06T11:53:03;13.4;54.6
78461;SHT31;67755;51.986;5.696;2023-04-06T11:55:38;13.4;55.1
78461;SHT31;67755;51.986;5.696;2023-04-06T11:58:10;13.4;55.1
78461;SHT31;67755;51.986;5.696;2023-04-06T12:00:40;13.3;55.4
78461;SHT31;67755;51.986;5.696;2023-04-06T12:03:13;13.3;55.7
78461;SHT31;67755;51.986;5.696;2023-04-06T12:05:43;13.3;54.9
78461;SHT31;67755;51.986;5.696;2023-04-06T12:08:13;13.3;55.9
78461;SHT31;67755;51.986;5.696;2023-04-06T12:10:43;13.3;56.7
78461;SHT31;67755;51.986;5.696;2023-04-06T12:13:12;13.3;56.8
78461;SHT31;67755;51.986;5.696;2023-04-06T12:15:42;13.3;56.3
78461;SHT31;67755;51.986;5.696;2023-04-06T12:18:12;13.2;56.3
78461;SHT31;67755;51.986;5.696;2023-04-06T12:20:42;13.2;55.3
78461;SHT31;67755;51.986;5.696;2023-04-06T12:23:11;13.2;55.9
78461;SHT31;67755;51.986;5.696;2023-04-06T12:25:42;13.1;55.3
78461;SHT31;67755;51.986;5.696;2023-04-06T12:28:12;13.1;56.7
78461;SHT31;67755;51.986;5.696;2023-04-06T12:30:41;13.1;57.2
78461;SHT31;67755;51.986;5.696;2023-04-06T12:33:11;13.1;56.5
78461;SHT31;67755;51.986;5.696;2023-04-06T12:35:41;13.0;57.0
78461;SHT31;67755;51.986;5.696;2023-04-06T12:38:11;13.0;57.6
78461;SHT31;67755;51.986;5.696;2023-04-06T12:40:41;13.0;58.0
78461;SHT31;67755;51.986;5.696;2023-04-06T12:43:12;13.0;56.9
78461;SHT31;67755;51.986;5.696;2023-04-06T12:45:42;12.9;56.9
78461;SHT31;67755;51.986;5.696;2023-04-06T12:48:14;12.9;57.4
78461;SHT31;67755;51.986;5.696;2023-04-06T12:50:43;12.9;57.6
78461;SHT31;67755;51.986;5.696;2023-04-06T12:53:15;12.8;59.4
78461;SHT31;67755;51.986;5.696;2023-04-06T12:55:45;12.8;58.8
78461;SHT31;67755;51.986;5.696;2023-04-06T12:58:15;12.8;59.3
78461;SHT31;67755;51.986;5.696;2023-04-06T13:00:44;12.8;60.0
78461;SHT31;67755;51.986;5.696;2023-04-06T13:03:14;12.7;59.5
78461;SHT31;67755;51.986;5.696;2023-04-06T13:05:46;12.7;58.6
78461;SHT31;67755;51.986;5.696;2023-04-06T13:08:17;12.7;59.3
78461;SHT31;67755;51.986;5.696;2023-04-06T13:10:50;12.7;59.2
78461;SHT31;67755;51.986;5.696;2023-04-06T13:13:23;12.6;60.9
78461;SHT31;67755;51.986;5.696;2023-04-06T13:15:54;12.6;60.6
78461;SHT31;67755;51.986;5.696;2023-04-06T13:18:24;12.6;60.7
78461;SHT31;67755;51.986;5.696;2023-04-06T13:20:56;12.6;59.6
78461;SHT31;67755;51.986;5.696;2023-04-06T13:23:28;12.6;60.5
78461;SHT31;67755;51.986;5.696;2023-04-06T13:25:59;12.6;60.1
78461;SHT31;67755;51.986;5.696;2023-04-06T13:28:31;12.6;61.0
78461;SHT31;67755;51.986;5.696;2023-04-06T13:31:02;12.6;61.4
78461;SHT31;67755;51.986;5.696;2023-04-06T13:33:32;12.6;60.3
78461;SHT31;67755;51.986;5.696;2023-04-06T13:36:05;12.5;60.6
78461;SHT31;67755;51.986;5.696;2023-04-06T13:38:35;12.5;61.5
78461;SHT31;67755;51.986;5.696;2023-04-06T13:41:06;12.5;61.0
78461;SHT31;67755;51.986;5.696;2023-04-06T13:43:36;12.5;61.6
78461;SHT31;67755;51.986;5.696;2023-04-06T13:46:06;12.5;61.9
78461;SHT31;67755;51.986;5.696;2023-04-06T13:48:35;12.5;60.8
78461;SHT31;67755;51.986;5.696;2023-04-06T13:51:12;12.5;60.7
78461;SHT31;67755;51.986;5.696;2023-04-06T13:53:42;12.5;61.8
78461;SHT31;67755;51.986;5.696;2023-04-06T13:56:12;12.5;61.0
78461;SHT31;67755;51.986;5.696;2023-04-06T13:58:41;12.5;60.8
78461;SHT31;67755;51.986;5.696;2023-04-06T14:01:11;12.5;61.5
78461;SHT31;67755;51.986;5.696;2023-04-06T14:03:41;12.5;61.0
78461;SHT31;67755;51.986;5.696;2023-04-06T14:06:14;12.5;60.8
78461;SHT31;67755;51.986;5.696;2023-04-06T14:08:44;12.5;62.0
78461;SHT31;67755;51.986;5.696;2023-04-06T14:11:14;12.4;61.6
78461;SHT31;67755;51.986;5.696;2023-04-06T14:13:46;12.4;61.9
78461;SHT31;67755;51.986;5.696;2023-04-06T14:16:15;12.4;62.0
78461;SHT31;67755;51.986;5.696;2023-04-06T14:18:47;12.4;62.2
78461;SHT31;67755;51.986;5.696;2023-04-06T14:21:16;12.4;62.1
78461;SHT31;67755;51.986;5.696;2023-04-06T14:23:47;12.4;62.5
78461;SHT31;67755;51.986;5.696;2023-04-06T14:26:16;12.4;62.7
78461;SHT31;67755;51.986;5.696;2023-04-06T14:28:47;12.4;62.6
78461;SHT31;67755;51.986;5.696;2023-04-06T14:31:16;12.4;62.2
78461;SHT31;67755;51.986;5.696;2023-04-06T14:33:46;12.4;62.2
78461;SHT31;67755;51.986;5.696;2023-04-06T14:36:15;12.4;62.1
78461;SHT31;67755;51.986;5.696;2023-04-06T14:38:46;12.4;62.5
78461;SHT31;67755;51.986;5.696;2023-04-06T14:41:20;12.4;63.2
78461;SHT31;67755;51.986;5.696;2023-04-06T14:43:54;12.4;63.3
78461;SHT31;67755;51.986;5.696;2023-04-06T14:46:24;12.4;63.3
78461;SHT31;67755;51.986;5.696;2023-04-06T14:48:54;12.4;63.5
78461;SHT31;67755;51.986;5.696;2023-04-06T14:51:24;12.4;63.8
78461;SHT31;67755;51.986;5.696;2023-04-06T14:53:55;12.3;63.8
78461;SHT31;67755;51.986;5.696;2023-04-06T14:56:27;12.4;63.9
78461;SHT31;67755;51.986;5.696;2023-04-06T14:58:57;12.4;62.9
78461;SHT31;67755;51.986;5.696;2023-04-06T15:01:29;12.4;63.0
78461;SHT31;67755;51.986;5.696;2023-04-06T15:04:01;12.3;63.7
78461;SHT31;67755;51.986;5.696;2023-04-06T15:06:31;12.3;63.8
78461;SHT31;67755;51.986;5.696;2023-04-06T15:09:04;12.3;63.5
78461;SHT31;67755;51.986;5.696;2023-04-06T15:11:34;12.3;63.5
78461;SHT31;67755;51.986;5.696;2023-04-06T15:14:03;12.3;63.8
78461;SHT31;67755;51.986;5.696;2023-04-06T15:16:34;12.3;64.0
78461;SHT31;67755;51.986;5.696;2023-04-06T15:19:04;12.3;63.9
78461;SHT31;67755;51.986;5.696;2023-04-06T15:21:36;12.3;64.5
78461;SHT31;67755;51.986;5.696;2023-04-06T15:24:06;12.3;63.9
78461;SHT31;67755;51.986;5.696;2023-04-06T15:26:37;12.3;64.0
78461;SHT31;67755;51.986;5.696;2023-04-06T15:29:06;12.3;64.1
78461;SHT31;67755;51.986;5.696;2023-04-06T15:31:36;12.3;63.9
78461;SHT31;67755;51.986;5.696;2023-04-06T15:34:09;12.3;63.1
78461;SHT31;67755;51.986;5.696;2023-04-06T15:36:39;12.3;64.0
78461;SHT31;67755;51.986;5.696;2023-04-06T15:39:11;12.3;64.0
78461;SHT31;67755;51.986;5.696;2023-04-06T15:41:41;12.3;64.2
78461;SHT31;67755;51.986;5.696;2023-04-06T15:44:10;12.3;63.8
78461;SHT31;67755;51.986;5.696;2023-04-06T15:46:44;12.3;64.3
78461;SHT31;67755;51.986;5.696;2023-04-06T15:49:13;12.2;64.4
78461;SHT31;67755;51.986;5.696;2023-04-06T15:51:43;12.2;64.5
78461;SHT31;67755;51.986;5.696;2023-04-06T15:54:12;12.2;64.5
78461;SHT31;67755;51.986;5.696;2023-04-06T15:56:43;12.2;64.3
78461;SHT31;67755;51.986;5.696;2023-04-06T15:59:12;12.2;64.6
78461;SHT31;67755;51.986;5.696;2023-04-06T16:01:42;12.2;64.6
78461;SHT31;67755;51.986;5.696;2023-04-06T16:04:12;12.2;64.4
78461;SHT31;67755;51.986;5.696;2023-04-06T16:06:42;12.2;64.2
78461;SHT31;67755;51.986;5.696;2023-04-06T16:09:11;12.2;64.9
78461;SHT31;67755;51.986;5.696;2023-04-06T16:11:41;12.2;64.6
78461;SHT31;67755;51.986;5.696;2023-04-06T16:14:11;12.2;64.7
78461;SHT31;67755;51.986;5.696;2023-04-06T16:16:43;12.2;65.1
78461;SHT31;67755;51.986;5.696;2023-04-06T16:19:13;12.2;64.8
78461;SHT31;67755;51.986;5.696;2023-04-06T16:21:43;12.1;64.9
78461;SHT31;67755;51.986;5.696;2023-04-06T16:24:13;12.1;65.2
78461;SHT31;67755;51.986;5.696;2023-04-06T16:26:43;12.1;65.5
78461;SHT31;67755;51.986;5.696;2023-04-06T16:29:15;12.1;65.5
78461;SHT31;67755;51.986;5.696;2023-04-06T16:31:45;12.1;65.3